sensor_id;sensor_type;location;lat;lon;timestamp;temperature;humidity
2825;DHT22;1420;51.324;12.344;2023-07-24T00:00:32;21.20;82.20
2825;DHT22;1420;51.324;12.344;2023-07-24T00:03:00;21.30;81.20
2825;DHT22;1420;51.324;12.344;2023-07-24T00:05:27;21.30;81.30
2825;DHT22;1420;51.324;12.344;2023-07-24T00:07:54;21.30;79.40
2825;DHT22;1420;51.324;12.344;2023-07-24T00:10:22;21.40;77.90
2825;DHT22;1420;51.324;12.344;2023-07-24T00:12:50;21.20;81.20
2825;DHT22;1420;51.324;12.344;2023-07-24T00:15:17;21.10;81.10
2825;DHT22;1420;51.324;12.344;2023-07-24T00:17:44;21.20;82.00
2825;DHT22;1420;51.324;12.344;2023-07-24T00:20:11;21.20;83.40
2825;DHT22;1420;51.324;12.344;2023-07-24T00:22:39;20.90;86.40
2825;DHT22;1420;51.324;12.344;2023-07-24T00:25:07;20.90;86.30
2825;DHT22;1420;51.324;12.344;2023-07-24T00:27:34;20.80;87.30
2825;DHT22;1420;51.324;12.344;2023-07-24T00:30:01;20.70;89.90
2825;DHT22;1420;51.324;12.344;2023-07-24T00:32:28;20.80;89.70
2825;DHT22;1420;51.324;12.344;2023-07-24T00:34:56;20.70;90.30
2825;DHT22;1420;51.324;12.344;2023-07-24T00:37:23;20.60;91.80
2825;DHT22;1420;51.324;12.344;2023-07-24T00:39:51;20.70;91.70
2825;DHT22;1420;51.324;12.344;2023-07-24T00:42:18;20.60;91.60
2825;DHT22;1420;51.324;12.344;2023-07-24T00:44:45;20.80;88.50
2825;DHT22;1420;51.324;12.344;2023-07-24T00:47:12;21.00;86.70
2825;DHT22;1420;51.324;12.344;2023-07-24T00:49:40;20.80;91.70
2825;DHT22;1420;51.324;12.344;2023-07-24T00:52:08;20.80;91.60
2825;DHT22;1420;51.324;12.344;2023-07-24T00:54:36;20.80;91.60
2825;DHT22;1420;51.324;12.344;2023-07-24T00:57:03;20.80;90.60
2825;DHT22;1420;51.324;12.344;2023-07-24T00:59:31;21.00;88.30
2825;DHT22;1420;51.324;12.344;2023-07-24T01:01:58;20.90;88.30
2825;DHT22;1420;51.324;12.344;2023-07-24T01:04:25;20.80;91.30
2825;DHT22;1420;51.324;12.344;2023-07-24T01:06:53;20.90;89.30
2825;DHT22;1420;51.324;12.344;2023-07-24T01:09:21;20.90;91.50
2825;DHT22;1420;51.324;12.344;2023-07-24T01:11:52;20.80;91.40
2825;DHT22;1420;51.324;12.344;2023-07-24T01:14:21;20.90;91.60
2825;DHT22;1420;51.324;12.344;2023-07-24T01:16:47;20.90;90.90
2825;DHT22;1420;51.324;12.344;2023-07-24T01:19:27;20.80;92.60
2825;DHT22;1420;51.324;12.344;2023-07-24T01:21:58;20.70;92.50
2825;DHT22;1420;51.324;12.344;2023-07-24T01:24:24;20.70;93.30
2825;DHT22;1420;51.324;12.344;2023-07-24T01:26:50;20.70;93.60
2825;DHT22;1420;51.324;12.344;2023-07-24T01:29:17;20.60;93.10
2825;DHT22;1420;51.324;12.344;2023-07-24T01:31:44;20.50;95.30
2825;DHT22;1420;51.324;12.344;2023-07-24T01:34:11;20.40;95.80
2825;DHT22;1420;51.324;12.344;2023-07-24T01:36:39;20.40;97.20
2825;DHT22;1420;51.324;12.344;2023-07-24T01:39:07;20.40;97.10
2825;DHT22;1420;51.324;12.344;2023-07-24T01:41:34;20.30;97.80
2825;DHT22;1420;51.324;12.344;2023-07-24T01:44:01;20.40;94.60
2825;DHT22;1420;51.324;12.344;2023-07-24T01:46:29;20.60;96.40
2825;DHT22;1420;51.324;12.344;2023-07-24T01:48:57;20.40;98.40
2825;DHT22;1420;51.324;12.344;2023-07-24T01:51:24;20.30;98.30
2825;DHT22;1420;51.324;12.344;2023-07-24T01:53:51;20.40;97.70
2825;DHT22;1420;51.324;12.344;2023-07-24T01:56:19;20.40;98.40
2825;DHT22;1420;51.324;12.344;2023-07-24T01:58:47;20.60;96.40
2825;DHT22;1420;51.324;12.344;2023-07-24T02:01:14;20.60;96.40
2825;DHT22;1420;51.324;12.344;2023-07-24T02:03:41;20.50;96.90
2825;DHT22;1420;51.324;12.344;2023-07-24T02:06:08;20.40;98.90
2825;DHT22;1420;51.324;12.344;2023-07-24T02:08:36;20.40;98.20
2825;DHT22;1420;51.324;12.344;2023-07-24T02:11:04;20.20;99.90
2825;DHT22;1420;51.324;12.344;2023-07-24T02:13:31;20.20;99.90
2825;DHT22;1420;51.324;12.344;2023-07-24T02:15:59;20.10;99.90
2825;DHT22;1420;51.324;12.344;2023-07-24T02:18:26;20.30;97.90
2825;DHT22;1420;51.324;12.344;2023-07-24T02:20:54;20.00;99.90
2825;DHT22;1420;51.324;12.344;2023-07-24T02:23:21;19.90;99.90
2825;DHT22;1420;51.324;12.344;2023-07-24T02:25:51;20.10;99.90
2825;DHT22;1420;51.324;12.344;2023-07-24T02:28:17;20.10;99.90
2825;DHT22;1420;51.324;12.344;2023-07-24T02:30:47;20.10;99.10
2825;DHT22;1420;51.324;12.344;2023-07-24T02:33:14;20.20;99.80
2825;DHT22;1420;51.324;12.344;2023-07-24T02:35:42;20.10;99.70
2825;DHT22;1420;51.324;12.344;2023-07-24T02:38:09;20.10;99.90
2825;DHT22;1420;51.324;12.344;2023-07-24T02:40:37;20.20;99.70
2825;DHT22;1420;51.324;12.344;2023-07-24T02:43:04;20.10;99.60
2825;DHT22;1420;51.324;12.344;2023-07-24T02:45:33;20.30;95.90
2825;DHT22;1420;51.324;12.344;2023-07-24T02:47:58;20.20;99.30
2825;DHT22;1420;51.324;12.344;2023-07-24T02:50:26;20.60;93.30
2825;DHT22;1420;51.324;12.344;2023-07-24T02:52:54;20.70;95.00
2825;DHT22;1420;51.324;12.344;2023-07-24T02:55:22;20.60;94.80
2825;DHT22;1420;51.324;12.344;2023-07-24T02:57:49;20.60;96.00
2825;DHT22;1420;51.324;12.344;2023-07-24T03:00:16;20.60;94.50
2825;DHT22;1420;51.324;12.344;2023-07-24T03:02:44;20.80;92.40
2825;DHT22;1420;51.324;12.344;2023-07-24T03:05:11;20.70;92.30
2825;DHT22;1420;51.324;12.344;2023-07-24T03:07:38;20.40;96.00
2825;DHT22;1420;51.324;12.344;2023-07-24T03:10:06;20.20;98.50
2825;DHT22;1420;51.324;12.344;2023-07-24T03:12:33;19.90;99.90
2825;DHT22;1420;51.324;12.344;2023-07-24T03:15:01;19.70;99.90
2825;DHT22;1420;51.324;12.344;2023-07-24T03:17:28;19.60;99.90
2825;DHT22;1420;51.324;12.344;2023-07-24T03:19:56;19.90;99.90
2825;DHT22;1420;51.324;12.344;2023-07-24T03:22:24;19.90;99.90
2825;DHT22;1420;51.324;12.344;2023-07-24T03:24:52;19.90;99.60
2825;DHT22;1420;51.324;12.344;2023-07-24T03:27:19;19.90;99.60
2825;DHT22;1420;51.324;12.344;2023-07-24T03:29:47;20.10;98.50
2825;DHT22;1420;51.324;12.344;2023-07-24T03:32:14;20.10;97.50
2825;DHT22;1420;51.324;12.344;2023-07-24T03:34:42;20.20;96.90
2825;DHT22;1420;51.324;12.344;2023-07-24T03:37:10;20.00;97.10
2825;DHT22;1420;51.324;12.344;2023-07-24T03:39:37;20.00;97.10
2825;DHT22;1420;51.324;12.344;2023-07-24T03:42:04;19.90;97.10
2825;DHT22;1420;51.324;12.344;2023-07-24T03:44:32;19.90;97.40
2825;DHT22;1420;51.324;12.344;2023-07-24T03:46:59;19.90;97.30
2825;DHT22;1420;51.324;12.344;2023-07-24T03:49:26;20.00;96.30
2825;DHT22;1420;51.324;12.344;2023-07-24T03:51:53;20.10;94.90
2825;DHT22;1420;51.324;12.344;2023-07-24T03:54:21;20.20;94.40
2825;DHT22;1420;51.324;12.344;2023-07-24T03:56:48;20.20;94.40
2825;DHT22;1420;51.324;12.344;2023-07-24T03:59:16;20.30;93.40
2825;DHT22;1420;51.324;12.344;2023-07-24T04:01:43;20.50;93.10
2825;DHT22;1420;51.324;12.344;2023-07-24T04:04:11;20.40;92.70
2825;DHT22;1420;51.324;12.344;2023-07-24T04:06:38;20.30;92.60
2825;DHT22;1420;51.324;12.344;2023-07-24T04:09:05;20.60;92.30
2825;DHT22;1420;51.324;12.344;2023-07-24T04:11:33;20.50;92.50
2825;DHT22;1420;51.324;12.344;2023-07-24T04:14:01;20.40;93.00
2825;DHT22;1420;51.324;12.344;2023-07-24T04:16:28;20.30;92.90
2825;DHT22;1420;51.324;12.344;2023-07-24T04:18:55;20.50;91.80
2825;DHT22;1420;51.324;12.344;2023-07-24T04:21:22;20.50;92.40
2825;DHT22;1420;51.324;12.344;2023-07-24T04:23:50;20.60;91.60
2825;DHT22;1420;51.324;12.344;2023-07-24T04:26:18;20.50;92.50
2825;DHT22;1420;51.324;12.344;2023-07-24T04:28:45;20.50;92.50
2825;DHT22;1420;51.324;12.344;2023-07-24T04:31:13;20.40;92.80
2825;DHT22;1420;51.324;12.344;2023-07-24T04:33:40;20.60;92.30
2825;DHT22;1420;51.324;12.344;2023-07-24T04:36:08;20.60;93.70
2825;DHT22;1420;51.324;12.344;2023-07-24T04:38:36;20.50;93.30
2825;DHT22;1420;51.324;12.344;2023-07-24T04:41:03;20.50;93.30
2825;DHT22;1420;51.324;12.344;2023-07-24T04:43:30;20.50;91.60
2825;DHT22;1420;51.324;12.344;2023-07-24T04:45:57;20.70;92.50
2825;DHT22;1420;51.324;12.344;2023-07-24T04:48:25;20.90;91.60
2825;DHT22;1420;51.324;12.344;2023-07-24T04:50:54;20.90;91.60
2825;DHT22;1420;51.324;12.344;2023-07-24T04:53:22;20.90;91.30
2825;DHT22;1420;51.324;12.344;2023-07-24T04:55:49;21.30;88.60
2825;DHT22;1420;51.324;12.344;2023-07-24T04:58:17;21.20;86.80
2825;DHT22;1420;51.324;12.344;2023-07-24T05:00:45;21.40;89.10
2825;DHT22;1420;51.324;12.344;2023-07-24T05:03:12;21.30;88.90
2825;DHT22;1420;51.324;12.344;2023-07-24T05:05:39;21.10;89.90
2825;DHT22;1420;51.324;12.344;2023-07-24T05:08:06;21.20;89.00
2825;DHT22;1420;51.324;12.344;2023-07-24T05:10:35;21.50;84.60
2825;DHT22;1420;51.324;12.344;2023-07-24T05:13:02;21.70;83.80
2825;DHT22;1420;51.324;12.344;2023-07-24T05:15:29;21.70;83.90
2825;DHT22;1420;51.324;12.344;2023-07-24T05:17:57;21.80;83.60
2825;DHT22;1420;51.324;12.344;2023-07-24T05:20:24;21.90;82.40
2825;DHT22;1420;51.324;12.344;2023-07-24T05:22:52;22.10;81.90
2825;DHT22;1420;51.324;12.344;2023-07-24T05:25:19;22.00;81.70
2825;DHT22;1420;51.324;12.344;2023-07-24T05:27:46;22.30;82.60
2825;DHT22;1420;51.324;12.344;2023-07-24T05:30:13;22.30;82.30
2825;DHT22;1420;51.324;12.344;2023-07-24T05:32:41;22.60;79.50
2825;DHT22;1420;51.324;12.344;2023-07-24T05:35:09;22.50;79.80
2825;DHT22;1420;51.324;12.344;2023-07-24T05:37:37;22.40;79.20
2825;DHT22;1420;51.324;12.344;2023-07-24T05:40:05;22.40;79.80
2825;DHT22;1420;51.324;12.344;2023-07-24T05:42:32;22.30;78.50
2825;DHT22;1420;51.324;12.344;2023-07-24T05:44:59;22.20;81.30
2825;DHT22;1420;51.324;12.344;2023-07-24T05:47:27;22.30;77.60
2825;DHT22;1420;51.324;12.344;2023-07-24T05:49:54;22.50;77.00
2825;DHT22;1420;51.324;12.344;2023-07-24T05:52:21;22.60;76.40
2825;DHT22;1420;51.324;12.344;2023-07-24T05:54:48;22.90;74.60
2825;DHT22;1420;51.324;12.344;2023-07-24T05:57:16;23.40;72.80
2825;DHT22;1420;51.324;12.344;2023-07-24T05:59:43;23.90;70.30
2825;DHT22;1420;51.324;12.344;2023-07-24T06:02:10;24.40;68.60
2825;DHT22;1420;51.324;12.344;2023-07-24T06:04:37;24.90;64.70
2825;DHT22;1420;51.324;12.344;2023-07-24T06:07:04;25.50;61.90
2825;DHT22;1420;51.324;12.344;2023-07-24T06:09:32;25.80;60.60
2825;DHT22;1420;51.324;12.344;2023-07-24T06:12:00;26.40;56.00
2825;DHT22;1420;51.324;12.344;2023-07-24T06:14:27;26.30;56.00
2825;DHT22;1420;51.324;12.344;2023-07-24T06:16:54;26.70;54.90
2825;DHT22;1420;51.324;12.344;2023-07-24T06:19:21;26.60;52.90
2825;DHT22;1420;51.324;12.344;2023-07-24T06:21:49;27.20;51.60
2825;DHT22;1420;51.324;12.344;2023-07-24T06:24:16;27.20;51.30
2825;DHT22;1420;51.324;12.344;2023-07-24T06:26:44;27.20;49.90
2825;DHT22;1420;51.324;12.344;2023-07-24T06:29:11;27.00;50.30
2825;DHT22;1420;51.324;12.344;2023-07-24T06:31:38;27.30;49.40
2825;DHT22;1420;51.324;12.344;2023-07-24T06:34:05;27.60;48.60
2825;DHT22;1420;51.324;12.344;2023-07-24T06:36:33;27.60;48.30
2825;DHT22;1420;51.324;12.344;2023-07-24T06:39:01;27.40;47.10
2825;DHT22;1420;51.324;12.344;2023-07-24T06:41:28;27.40;47.10
2825;DHT22;1420;51.324;12.344;2023-07-24T06:43:55;27.60;47.30
2825;DHT22;1420;51.324;12.344;2023-07-24T06:46:22;28.10;47.10
2825;DHT22;1420;51.324;12.344;2023-07-24T06:48:49;28.10;45.90
2825;DHT22;1420;51.324;12.344;2023-07-24T06:51:17;28.10;46.10
2825;DHT22;1420;51.324;12.344;2023-07-24T06:53:44;28.00;45.70
2825;DHT22;1420;51.324;12.344;2023-07-24T06:56:11;27.70;46.30
2825;DHT22;1420;51.324;12.344;2023-07-24T06:58:39;27.70;46.70
2825;DHT22;1420;51.324;12.344;2023-07-24T07:01:06;28.20;46.10
2825;DHT22;1420;51.324;12.344;2023-07-24T07:03:33;28.80;44.60
2825;DHT22;1420;51.324;12.344;2023-07-24T07:06:01;28.60;44.70
2825;DHT22;1420;51.324;12.344;2023-07-24T07:08:29;28.30;45.30
2825;DHT22;1420;51.324;12.344;2023-07-24T07:10:56;28.20;45.10
2825;DHT22;1420;51.324;12.344;2023-07-24T07:13:23;28.10;44.70
2825;DHT22;1420;51.324;12.344;2023-07-24T07:15:51;27.00;46.80
2825;DHT22;1420;51.324;12.344;2023-07-24T07:18:18;27.00;46.80
2825;DHT22;1420;51.324;12.344;2023-07-24T07:20:47;26.90;46.70
2825;DHT22;1420;51.324;12.344;2023-07-24T07:23:15;26.50;47.70
2825;DHT22;1420;51.324;12.344;2023-07-24T07:25:42;26.50;47.60
2825;DHT22;1420;51.324;12.344;2023-07-24T07:28:13;26.40;48.20
2825;DHT22;1420;51.324;12.344;2023-07-24T07:30:41;26.40;48.00
2825;DHT22;1420;51.324;12.344;2023-07-24T07:33:08;26.30;47.80
2825;DHT22;1420;51.324;12.344;2023-07-24T07:35:35;26.70;48.50
2825;DHT22;1420;51.324;12.344;2023-07-24T07:38:03;26.90;47.60
2825;DHT22;1420;51.324;12.344;2023-07-24T07:40:30;27.30;46.40
2825;DHT22;1420;51.324;12.344;2023-07-24T07:42:57;26.90;47.50
2825;DHT22;1420;51.324;12.344;2023-07-24T07:45:24;26.80;46.20
2825;DHT22;1420;51.324;12.344;2023-07-24T07:47:52;26.60;47.60
2825;DHT22;1420;51.324;12.344;2023-07-24T07:50:19;26.50;47.60
2825;DHT22;1420;51.324;12.344;2023-07-24T07:52:49;26.80;47.50
2825;DHT22;1420;51.324;12.344;2023-07-24T07:55:16;26.70;47.60
2825;DHT22;1420;51.324;12.344;2023-07-24T07:57:43;26.90;47.10
2825;DHT22;1420;51.324;12.344;2023-07-24T08:00:11;26.70;47.40
2825;DHT22;1420;51.324;12.344;2023-07-24T08:02:39;26.70;46.80
2825;DHT22;1420;51.324;12.344;2023-07-24T08:05:08;26.70;46.80
2825;DHT22;1420;51.324;12.344;2023-07-24T08:07:35;26.50;47.50
2825;DHT22;1420;51.324;12.344;2023-07-24T08:10:02;26.70;46.70
2825;DHT22;1420;51.324;12.344;2023-07-24T08:12:29;26.70;47.40
2825;DHT22;1420;51.324;12.344;2023-07-24T08:14:57;26.70;46.50
2825;DHT22;1420;51.324;12.344;2023-07-24T08:17:25;26.70;46.50
2825;DHT22;1420;51.324;12.344;2023-07-24T08:19:52;26.70;47.60
2825;DHT22;1420;51.324;12.344;2023-07-24T08:22:19;26.80;46.00
2825;DHT22;1420;51.324;12.344;2023-07-24T08:24:47;27.30;45.50
2825;DHT22;1420;51.324;12.344;2023-07-24T08:27:14;27.30;45.40
2825;DHT22;1420;51.324;12.344;2023-07-24T08:29:41;27.00;45.50
2825;DHT22;1420;51.324;12.344;2023-07-24T08:32:09;27.00;46.00
2825;DHT22;1420;51.324;12.344;2023-07-24T08:34:36;27.30;45.80
2825;DHT22;1420;51.324;12.344;2023-07-24T08:37:03;27.60;45.80
2825;DHT22;1420;51.324;12.344;2023-07-24T08:39:30;27.80;44.20
2825;DHT22;1420;51.324;12.344;2023-07-24T08:41:58;27.80;44.70
2825;DHT22;1420;51.324;12.344;2023-07-24T08:44:25;28.00;44.00
2825;DHT22;1420;51.324;12.344;2023-07-24T08:46:52;28.00;44.50
2825;DHT22;1420;51.324;12.344;2023-07-24T08:49:19;27.70;44.10
2825;DHT22;1420;51.324;12.344;2023-07-24T08:51:47;27.90;43.50
2825;DHT22;1420;51.324;12.344;2023-07-24T08:54:15;28.70;42.40
2825;DHT22;1420;51.324;12.344;2023-07-24T08:56:42;28.70;42.40
2825;DHT22;1420;51.324;12.344;2023-07-24T08:59:09;28.40;42.50
2825;DHT22;1420;51.324;12.344;2023-07-24T09:01:36;28.30;42.70
2825;DHT22;1420;51.324;12.344;2023-07-24T09:04:03;29.10;41.90
2825;DHT22;1420;51.324;12.344;2023-07-24T09:06:31;28.80;41.50
2825;DHT22;1420;51.324;12.344;2023-07-24T09:08:59;28.70;42.20
2825;DHT22;1420;51.324;12.344;2023-07-24T09:11:27;28.60;42.00
2825;DHT22;1420;51.324;12.344;2023-07-24T09:13:54;28.50;42.10
2825;DHT22;1420;51.324;12.344;2023-07-24T09:16:24;28.40;41.80
2825;DHT22;1420;51.324;12.344;2023-07-24T09:18:51;28.20;42.10
2825;DHT22;1420;51.324;12.344;2023-07-24T09:21:28;28.70;41.20
2825;DHT22;1420;51.324;12.344;2023-07-24T09:23:54;28.50;41.70
2825;DHT22;1420;51.324;12.344;2023-07-24T09:26:22;28.60;41.20
2825;DHT22;1420;51.324;12.344;2023-07-24T09:28:52;28.80;41.40
2825;DHT22;1420;51.324;12.344;2023-07-24T09:31:18;28.70;41.20
2825;DHT22;1420;51.324;12.344;2023-07-24T09:33:46;28.70;41.10
2825;DHT22;1420;51.324;12.344;2023-07-24T09:36:13;28.80;41.70
2825;DHT22;1420;51.324;12.344;2023-07-24T09:38:40;28.50;41.80
2825;DHT22;1420;51.324;12.344;2023-07-24T09:41:07;28.50;42.30
2825;DHT22;1420;51.324;12.344;2023-07-24T09:43:34;28.60;41.50
2825;DHT22;1420;51.324;12.344;2023-07-24T09:46:04;28.20;42.50
2825;DHT22;1420;51.324;12.344;2023-07-24T09:48:30;28.00;42.20
2825;DHT22;1420;51.324;12.344;2023-07-24T09:50:58;28.30;42.20
2825;DHT22;1420;51.324;12.344;2023-07-24T09:53:33;28.40;42.30
2825;DHT22;1420;51.324;12.344;2023-07-24T09:56:03;28.30;43.10
2825;DHT22;1420;51.324;12.344;2023-07-24T09:58:30;28.30;42.40
2825;DHT22;1420;51.324;12.344;2023-07-24T10:00:57;28.00;43.10
2825;DHT22;1420;51.324;12.344;2023-07-24T10:03:24;27.90;43.50
2825;DHT22;1420;51.324;12.344;2023-07-24T10:05:52;28.30;43.30
2825;DHT22;1420;51.324;12.344;2023-07-24T10:08:18;28.60;42.90
2825;DHT22;1420;51.324;12.344;2023-07-24T10:10:46;28.30;42.50
2825;DHT22;1420;51.324;12.344;2023-07-24T10:13:13;28.10;42.90
2825;DHT22;1420;51.324;12.344;2023-07-24T10:15:42;28.40;42.70
2825;DHT22;1420;51.324;12.344;2023-07-24T10:18:09;28.40;42.60
2825;DHT22;1420;51.324;12.344;2023-07-24T10:20:38;28.40;42.90
2825;DHT22;1420;51.324;12.344;2023-07-24T10:23:04;28.20;43.00
2825;DHT22;1420;51.324;12.344;2023-07-24T10:25:32;28.00;43.40
2825;DHT22;1420;51.324;12.344;2023-07-24T10:28:03;27.90;43.60
2825;DHT22;1420;51.324;12.344;2023-07-24T10:30:30;28.00;44.20
2825;DHT22;1420;51.324;12.344;2023-07-24T10:33:04;28.00;44.20
2825;DHT22;1420;51.324;12.344;2023-07-24T10:35:38;28.10;43.80
2825;DHT22;1420;51.324;12.344;2023-07-24T10:38:05;28.50;42.90
2825;DHT22;1420;51.324;12.344;2023-07-24T10:40:32;28.80;42.50
2825;DHT22;1420;51.324;12.344;2023-07-24T10:43:00;28.50;44.10
2825;DHT22;1420;51.324;12.344;2023-07-24T10:45:27;28.60;42.70
2825;DHT22;1420;51.324;12.344;2023-07-24T10:47:54;28.50;43.00
2825;DHT22;1420;51.324;12.344;2023-07-24T10:50:22;28.60;43.00
2825;DHT22;1420;51.324;12.344;2023-07-24T10:52:49;28.50;43.00
2825;DHT22;1420;51.324;12.344;2023-07-24T10:55:16;29.00;42.90
2825;DHT22;1420;51.324;12.344;2023-07-24T10:57:43;29.00;43.70
2825;DHT22;1420;51.324;12.344;2023-07-24T11:00:11;29.00;42.30
2825;DHT22;1420;51.324;12.344;2023-07-24T11:02:39;28.90;43.50
2825;DHT22;1420;51.324;12.344;2023-07-24T11:05:07;28.90;42.80
2825;DHT22;1420;51.324;12.344;2023-07-24T11:07:35;28.80;43.90
2825;DHT22;1420;51.324;12.344;2023-07-24T11:10:03;28.40;43.60
2825;DHT22;1420;51.324;12.344;2023-07-24T11:12:30;28.40;43.60
2825;DHT22;1420;51.324;12.344;2023-07-24T11:14:57;28.30;44.10
2825;DHT22;1420;51.324;12.344;2023-07-24T11:17:40;28.20;44.10
2825;DHT22;1420;51.324;12.344;2023-07-24T11:20:11;28.10;44.70
2825;DHT22;1420;51.324;12.344;2023-07-24T11:22:40;28.10;45.20
2825;DHT22;1420;51.324;12.344;2023-07-24T11:25:08;28.00;44.40
2825;DHT22;1420;51.324;12.344;2023-07-24T11:27:41;28.00;44.40
2825;DHT22;1420;51.324;12.344;2023-07-24T11:30:08;28.10;44.70
2825;DHT22;1420;51.324;12.344;2023-07-24T11:32:37;28.00;45.00
2825;DHT22;1420;51.324;12.344;2023-07-24T11:35:04;27.90;44.80
2825;DHT22;1420;51.324;12.344;2023-07-24T11:37:31;27.90;44.70
2825;DHT22;1420;51.324;12.344;2023-07-24T11:40:00;27.90;44.80
2825;DHT22;1420;51.324;12.344;2023-07-24T11:42:27;27.90;45.50
2825;DHT22;1420;51.324;12.344;2023-07-24T11:44:54;27.80;45.40
2825;DHT22;1420;51.324;12.344;2023-07-24T11:47:21;28.20;44.80
2825;DHT22;1420;51.324;12.344;2023-07-24T11:50:01;28.10;44.90
2825;DHT22;1420;51.324;12.344;2023-07-24T11:52:40;28.00;44.40
2825;DHT22;1420;51.324;12.344;2023-07-24T11:55:07;28.20;44.80
2825;DHT22;1420;51.324;12.344;2023-07-24T11:57:35;28.20;44.30
2825;DHT22;1420;51.324;12.344;2023-07-24T12:00:04;28.20;44.10
2825;DHT22;1420;51.324;12.344;2023-07-24T12:02:31;28.20;44.10
2825;DHT22;1420;51.324;12.344;2023-07-24T12:04:59;28.40;44.00
2825;DHT22;1420;51.324;12.344;2023-07-24T12:07:32;28.30;44.20
2825;DHT22;1420;51.324;12.344;2023-07-24T12:10:00;28.30;44.20
2825;DHT22;1420;51.324;12.344;2023-07-24T12:12:47;29.20;42.60
2825;DHT22;1420;51.324;12.344;2023-07-24T12:15:15;29.20;42.60
2825;DHT22;1420;51.324;12.344;2023-07-24T12:17:42;29.30;42.50
2825;DHT22;1420;51.324;12.344;2023-07-24T12:20:09;29.30;42.90
2825;DHT22;1420;51.324;12.344;2023-07-24T12:22:37;29.50;43.30
2825;DHT22;1420;51.324;12.344;2023-07-24T12:25:04;29.60;42.20
2825;DHT22;1420;51.324;12.344;2023-07-24T12:27:31;29.10;42.50
2825;DHT22;1420;51.324;12.344;2023-07-24T12:29:59;29.40;42.70
2825;DHT22;1420;51.324;12.344;2023-07-24T12:32:26;29.40;42.60
2825;DHT22;1420;51.324;12.344;2023-07-24T12:34:53;29.70;41.70
2825;DHT22;1420;51.324;12.344;2023-07-24T12:37:21;29.50;41.00
2825;DHT22;1420;51.324;12.344;2023-07-24T12:39:49;29.60;40.90
2825;DHT22;1420;51.324;12.344;2023-07-24T12:42:16;29.60;40.80
2825;DHT22;1420;51.324;12.344;2023-07-24T12:44:43;29.30;40.40
2825;DHT22;1420;51.324;12.344;2023-07-24T12:47:11;29.50;39.80
2825;DHT22;1420;51.324;12.344;2023-07-24T12:49:38;29.40;40.60
2825;DHT22;1420;51.324;12.344;2023-07-24T12:52:05;29.20;40.30
2825;DHT22;1420;51.324;12.344;2023-07-24T12:54:32;29.00;40.10
2825;DHT22;1420;51.324;12.344;2023-07-24T12:57:00;28.80;41.40
2825;DHT22;1420;51.324;12.344;2023-07-24T12:59:27;28.80;42.20
2825;DHT22;1420;51.324;12.344;2023-07-24T13:01:54;28.80;42.00
2825;DHT22;1420;51.324;12.344;2023-07-24T13:04:22;28.40;43.00
2825;DHT22;1420;51.324;12.344;2023-07-24T13:06:49;28.40;42.90
2825;DHT22;1420;51.324;12.344;2023-07-24T13:09:17;28.30;43.40
2825;DHT22;1420;51.324;12.344;2023-07-24T13:11:43;28.10;44.00
2825;DHT22;1420;51.324;12.344;2023-07-24T13:14:11;27.80;44.10
2825;DHT22;1420;51.324;12.344;2023-07-24T13:16:38;27.80;44.40
2825;DHT22;1420;51.324;12.344;2023-07-24T13:19:05;27.80;44.20
2825;DHT22;1420;51.324;12.344;2023-07-24T13:21:32;27.50;44.10
2825;DHT22;1420;51.324;12.344;2023-07-24T13:23:59;27.60;44.20
2825;DHT22;1420;51.324;12.344;2023-07-24T13:26:27;27.40;44.80
2825;DHT22;1420;51.324;12.344;2023-07-24T13:28:55;27.50;44.60
2825;DHT22;1420;51.324;12.344;2023-07-24T13:31:22;27.50;44.60
2825;DHT22;1420;51.324;12.344;2023-07-24T13:33:49;27.70;44.40
2825;DHT22;1420;51.324;12.344;2023-07-24T13:36:16;27.90;44.10
2825;DHT22;1420;51.324;12.344;2023-07-24T13:38:44;27.80;44.70
2825;DHT22;1420;51.324;12.344;2023-07-24T13:41:11;27.70;45.30
2825;DHT22;1420;51.324;12.344;2023-07-24T13:43:38;27.80;45.90
2825;DHT22;1420;51.324;12.344;2023-07-24T13:46:06;27.70;45.20
2825;DHT22;1420;51.324;12.344;2023-07-24T13:48:33;27.70;45.90
2825;DHT22;1420;51.324;12.344;2023-07-24T13:51:02;27.90;44.30
2825;DHT22;1420;51.324;12.344;2023-07-24T13:53:29;28.00;44.40
2825;DHT22;1420;51.324;12.344;2023-07-24T13:55:57;28.50;44.50
2825;DHT22;1420;51.324;12.344;2023-07-24T13:58:25;28.50;44.50
2825;DHT22;1420;51.324;12.344;2023-07-24T14:00:52;28.50;43.60
2825;DHT22;1420;51.324;12.344;2023-07-24T14:03:19;28.40;44.00
2825;DHT22;1420;51.324;12.344;2023-07-24T14:05:46;28.40;44.10
2825;DHT22;1420;51.324;12.344;2023-07-24T14:08:13;28.30;43.90
2825;DHT22;1420;51.324;12.344;2023-07-24T14:10:41;28.20;44.20
2825;DHT22;1420;51.324;12.344;2023-07-24T14:13:08;28.10;44.10
2825;DHT22;1420;51.324;12.344;2023-07-24T14:15:35;28.00;44.30
2825;DHT22;1420;51.324;12.344;2023-07-24T14:18:02;28.10;44.20
2825;DHT22;1420;51.324;12.344;2023-07-24T14:20:30;27.80;44.70
2825;DHT22;1420;51.324;12.344;2023-07-24T14:22:57;27.80;44.70
2825;DHT22;1420;51.324;12.344;2023-07-24T14:25:26;27.90;44.60
2825;DHT22;1420;51.324;12.344;2023-07-24T14:27:53;27.90;45.40
2825;DHT22;1420;51.324;12.344;2023-07-24T14:30:21;28.10;44.50
2825;DHT22;1420;51.324;12.344;2023-07-24T14:32:48;28.10;44.70
2825;DHT22;1420;51.324;12.344;2023-07-24T14:35:15;28.10;45.10
2825;DHT22;1420;51.324;12.344;2023-07-24T14:37:42;28.10;45.20
2825;DHT22;1420;51.324;12.344;2023-07-24T14:40:10;28.00;45.50
2825;DHT22;1420;51.324;12.344;2023-07-24T14:42:37;28.20;45.80
2825;DHT22;1420;51.324;12.344;2023-07-24T14:45:05;28.40;45.70
2825;DHT22;1420;51.324;12.344;2023-07-24T14:47:33;28.70;44.80
2825;DHT22;1420;51.324;12.344;2023-07-24T14:50:01;28.60;44.80
2825;DHT22;1420;51.324;12.344;2023-07-24T14:52:28;28.60;44.90
2825;DHT22;1420;51.324;12.344;2023-07-24T14:54:55;28.60;45.20
2825;DHT22;1420;51.324;12.344;2023-07-24T14:57:23;28.40;46.10
2825;DHT22;1420;51.324;12.344;2023-07-24T14:59:50;28.10;46.00
2825;DHT22;1420;51.324;12.344;2023-07-24T15:02:17;27.70;47.10
2825;DHT22;1420;51.324;12.344;2023-07-24T15:04:44;27.60;47.90
2825;DHT22;1420;51.324;12.344;2023-07-24T15:07:12;27.50;48.30
2825;DHT22;1420;51.324;12.344;2023-07-24T15:09:39;27.50;48.10
2825;DHT22;1420;51.324;12.344;2023-07-24T15:12:07;27.30;48.60
2825;DHT22;1420;51.324;12.344;2023-07-24T15:14:34;27.30;49.00
2825;DHT22;1420;51.324;12.344;2023-07-24T15:17:02;27.30;48.70
2825;DHT22;1420;51.324;12.344;2023-07-24T15:19:29;27.30;48.80
2825;DHT22;1420;51.324;12.344;2023-07-24T15:21:56;27.40;48.40
2825;DHT22;1420;51.324;12.344;2023-07-24T15:24:24;27.40;49.20
2825;DHT22;1420;51.324;12.344;2023-07-24T15:26:51;27.50;48.40
2825;DHT22;1420;51.324;12.344;2023-07-24T15:29:18;27.80;49.00
2825;DHT22;1420;51.324;12.344;2023-07-24T15:31:45;28.10;48.30
2825;DHT22;1420;51.324;12.344;2023-07-24T15:34:13;27.90;47.70
2825;DHT22;1420;51.324;12.344;2023-07-24T15:36:40;27.80;47.90
2825;DHT22;1420;51.324;12.344;2023-07-24T15:39:07;27.60;48.50
2825;DHT22;1420;51.324;12.344;2023-07-24T15:41:35;27.40;49.10
2825;DHT22;1420;51.324;12.344;2023-07-24T15:44:02;27.40;49.10
2825;DHT22;1420;51.324;12.344;2023-07-24T15:46:29;27.30;49.20